Time;durP1;ratioP1;P1;durP2;ratioP2;P2;SDS_P1;SDS_P2;PMS_P1;PMS_P2;Temp;Humidity;BMP_temperature;BMP_pressure;BME280_temperature;BME280_humidity;BME280_pressure;Samples;Min_cycle;Max_cycle;Signal;HPM_P1;HPM_P2
2022/12/29 00:01:34;;;;;;;9.00;5.85;;;23.10;42.20;;;;;;6082450;28;80593;-61
2022/12/29 00:04:34;;;;;;;11.88;6.22;;;23.10;42.20;;;;;;6081559;28;81195;-61
2022/12/29 00:07:35;;;;;;;10.27;5.53;;;23.10;42.00;;;;;;6082439;28;82266;-60
2022/12/29 00:10:35;;;;;;;11.10;5.13;;;23.10;41.90;;;;;;6081769;28;81428;-60
2022/12/29 00:16:55;;;;;;;8.07;4.57;;;23.10;41.80;;;;;;6085007;28;81439;-61
2022/12/29 00:36:33;;;;;;;6.75;4.00;;;23.10;43.10;;;;;;6096244;28;83052;-60
2022/12/29 00:46:12;;;;;;;6.20;3.55;;;23.10;42.70;;;;;;6110698;28;83643;-60
2022/12/29 00:49:31;;;;;;;6.15;3.33;;;23.10;43.00;;;;;;6120281;28;80238;-60
2022/12/29 00:52:31;;;;;;;4.47;2.90;;;23.10;42.30;;;;;;6036094;28;1305001;-60
2022/12/29 00:55:32;;;;;;;6.82;3.50;;;23.10;42.20;;;;;;6081465;28;83703;-60
2022/12/29 00:58:32;;;;;;;4.85;3.20;;;23.10;41.90;;;;;;6081451;28;83543;-60
2022/12/29 01:01:33;;;;;;;4.90;2.95;;;23.10;41.80;;;;;;6080188;28;83594;-60
2022/12/29 01:04:33;;;;;;;3.67;2.60;;;23.10;41.80;;;;;;6082688;28;80584;-60
2022/12/29 01:07:34;;;;;;;3.97;2.50;;;23.10;41.90;;;;;;6081835;28;80384;-60
2022/12/29 01:10:36;;;;;;;3.75;2.53;;;23.10;41.60;;;;;;6080674;28;81604;-61
2022/12/29 01:13:38;;;;;;;4.25;2.80;;;23.10;41.50;;;;;;6081597;28;81608;-64
2022/12/29 01:16:38;;;;;;;6.25;2.63;;;23.10;41.40;;;;;;6080515;28;80417;-63
2022/12/29 01:19:39;;;;;;;5.72;2.50;;;23.10;41.90;;;;;;6081549;28;80851;-64
2022/12/29 01:22:39;;;;;;;3.80;2.28;;;23.10;42.20;;;;;;6080596;28;81063;-64
2022/12/29 01:25:40;;;;;;;3.53;2.55;;;23.10;41.80;;;;;;6079890;28;81870;-63
2022/12/29 01:28:41;;;;;;;3.80;2.50;;;23.10;41.80;;;;;;6079765;28;81237;-63
2022/12/29 01:31:42;;;;;;;2.90;2.28;;;23.10;42.10;;;;;;6065766;28;82799;-62
2022/12/29 01:34:43;;;;;;;4.05;2.58;;;23.10;41.50;;;;;;6075949;28;83702;-63
2022/12/29 01:37:43;;;;;;;8.40;2.40;;;23.10;41.90;;;;;;6069624;28;80535;-63
2022/12/29 01:40:44;;;;;;;2.88;2.10;;;23.10;41.70;;;;;;6075749;28;83682;-63
2022/12/29 01:43:45;;;;;;;3.38;2.30;;;23.10;41.60;;;;;;6081245;28;81133;-63
2022/12/29 01:46:45;;;;;;;4.05;2.47;;;23.00;41.60;;;;;;6091955;28;85524;-63
2022/12/29 01:49:46;;;;;;;3.40;2.15;;;23.00;41.70;;;;;;6071454;28;81128;-60
2022/12/29 01:52:46;;;;;;;2.47;1.92;;;23.00;41.70;;;;;;6080491;28;81553;-60
2022/12/29 01:55:47;;;;;;;2.72;2.25;;;23.00;41.70;;;;;;6082204;28;81375;-61
2022/12/29 01:58:47;;;;;;;2.90;2.13;;;23.00;41.60;;;;;;6078990;28;83251;-60
2022/12/29 02:01:48;;;;;;;3.90;2.20;;;23.00;41.60;;;;;;6079955;28;83417;-61
2022/12/29 02:04:49;;;;;;;2.70;2.05;;;23.00;41.30;;;;;;6080881;28;80370;-59
2022/12/29 02:07:51;;;;;;;2.00;1.77;;;23.00;41.40;;;;;;6081158;28;80516;-60
2022/12/29 02:10:52;;;;;;;2.70;1.90;;;23.00;41.10;;;;;;6078991;28;82755;-66
2022/12/29 02:13:56;;;;;;;3.80;2.20;;;23.00;41.40;;;;;;6079766;28;82681;-67
2022/12/29 02:16:57;;;;;;;3.22;2.08;;;23.00;41.30;;;;;;6081811;28;79949;-67
2022/12/29 02:19:58;;;;;;;2.75;2.20;;;23.00;41.10;;;;;;6088213;28;82887;-67
2022/12/29 02:22:58;;;;;;;2.78;2.00;;;22.90;41.00;;;;;;6098808;28;83373;-66
2022/12/29 02:25:59;;;;;;;3.25;2.17;;;22.90;41.00;;;;;;6092435;28;86324;-70
2022/12/29 02:28:59;;;;;;;2.75;1.88;;;23.00;40.90;;;;;;6087020;28;82323;-74
2022/12/29 02:32:00;;;;;;;2.60;2.20;;;22.90;40.90;;;;;;6073658;28;83158;-70
2022/12/29 02:35:01;;;;;;;2.40;1.88;;;22.90;41.00;;;;;;6071995;28;83182;-71
2022/12/29 02:38:01;;;;;;;3.17;2.20;;;22.90;40.80;;;;;;6083083;28;83280;-68
2022/12/29 02:41:02;;;;;;;3.92;2.08;;;23.00;40.90;;;;;;6067183;28;83204;-69
2022/12/29 02:44:03;;;;;;;2.17;1.73;;;23.00;41.00;;;;;;6083091;28;83403;-69
2022/12/29 02:47:03;;;;;;;3.38;2.10;;;23.00;40.80;;;;;;6080945;28;80520;-70
2022/12/29 02:50:04;;;;;;;3.70;2.30;;;22.90;40.80;;;;;;6091741;28;82466;-68
2022/12/29 02:53:04;;;;;;;2.90;2.00;;;23.00;40.70;;;;;;6071131;28;83380;-68
2022/12/29 02:56:05;;;;;;;3.13;2.17;;;22.90;40.70;;;;;;6109955;28;82043;-68
2022/12/29 02:59:05;;;;;;;2.67;1.83;;;22.90;40.50;;;;;;6089451;28;82048;-68
2022/12/29 03:02:19;;;;;;;2.47;1.75;;;22.90;40.50;;;;;;6082176;28;81261;-68
2022/12/29 03:05:22;;;;;;;2.30;1.93;;;22.90;40.70;;;;;;6078693;28;83363;-67
2022/12/29 03:08:22;;;;;;;2.08;1.60;;;23.00;40.70;;;;;;6087987;28;80461;-66
2022/12/29 03:18:02;;;;;;;3.25;2.10;;;23.00;40.60;;;;;;6098677;28;82239;-65
2022/12/29 03:21:03;;;;;;;2.88;2.17;;;23.00;40.50;;;;;;6095521;28;83327;-66
2022/12/29 03:24:04;;;;;;;2.22;1.83;;;23.00;40.50;;;;;;6089211;28;80538;-59
2022/12/29 03:27:04;;;;;;;2.05;1.83;;;23.00;40.40;;;;;;6102280;28;82542;-58
2022/12/29 03:30:10;;;;;;;2.55;1.58;;;23.00;40.30;;;;;;6114823;28;87510;-59
2022/12/29 03:33:11;;;;;;;2.53;1.63;;;23.00;40.30;;;;;;6102720;28;83405;-58
2022/12/29 03:36:12;;;;;;;2.72;1.77;;;23.00;40.40;;;;;;6097283;28;84050;-58
2022/12/29 03:39:13;;;;;;;1.98;1.30;;;23.00;40.60;;;;;;6095565;28;82809;-59
2022/12/29 03:42:13;;;;;;;2.30;1.60;;;23.00;40.60;;;;;;6107553;28;82502;-61
2022/12/29 03:45:14;;;;;;;2.05;1.63;;;23.00;40.50;;;;;;6102995;28;82879;-61
2022/12/29 03:48:15;;;;;;;2.58;2.15;;;23.00;40.50;;;;;;6107084;28;83507;-61
2022/12/29 03:51:15;;;;;;;1.85;1.70;;;23.00;40.50;;;;;;6115506;28;82030;-61
2022/12/29 03:54:16;;;;;;;2.05;1.85;;;23.00;40.60;;;;;;6108392;28;83271;-61
2022/12/29 03:57:17;;;;;;;2.22;1.60;;;23.00;40.60;;;;;;6106141;28;83765;-60
2022/12/29 04:00:28;;;;;;;2.20;1.60;;;23.00;40.50;;;;;;6106215;28;82485;-61
2022/12/29 04:03:29;;;;;;;1.75;1.45;;;23.00;40.60;;;;;;6107248;28;81616;-61
2022/12/29 04:06:30;;;;;;;1.77;1.60;;;23.00;40.60;;;;;;6118429;28;83653;-61
2022/12/29 04:09:42;;;;;;;1.65;1.40;;;23.00;40.50;;;;;;6104880;28;82449;-60
2022/12/29 04:12:46;;;;;;;2.30;1.50;;;23.00;40.60;;;;;;6104585;28;83011;-60
2022/12/29 04:15:47;;;;;;;1.95;1.60;;;23.00;41.40;;;;;;6099841;28;82748;-62
2022/12/29 04:18:48;;;;;;;1.77;1.35;;;23.00;41.70;;;;;;6096677;28;83049;-61
2022/12/29 04:21:50;;;;;;;1.60;1.48;;;23.00;42.10;;;;;;6077948;28;82821;-64
2022/12/29 04:24:51;;;;;;;1.73;1.40;;;23.00;42.30;;;;;;6105575;28;83215;-63
2022/12/29 04:27:51;;;;;;;2.70;1.60;;;23.00;42.50;;;;;;6100487;28;84050;-62
2022/12/29 04:31:12;;;;;;;1.90;1.30;;;23.00;42.30;;;;;;6102647;28;80560;-62
2022/12/29 04:34:15;;;;;;;1.65;1.45;;;23.00;42.10;;;;;;6087563;28;85590;-63
2022/12/29 04:37:16;;;;;;;4.47;1.70;;;23.10;42.10;;;;;;6087716;28;83331;-64
2022/12/29 04:40:17;;;;;;;2.20;1.52;;;23.00;42.00;;;;;;6089902;28;86102;-63
2022/12/29 04:43:24;;;;;;;1.70;1.55;;;23.00;41.90;;;;;;6091931;28;82824;-62
2022/12/29 04:46:44;;;;;;;1.92;1.50;;;23.10;42.10;;;;;;6076620;28;82116;-63
2022/12/29 04:49:54;;;;;;;3.40;1.70;;;23.10;42.40;;;;;;6075513;28;80834;-63
2022/12/29 04:53:33;;;;;;;2.72;1.75;;;23.00;42.50;;;;;;6102043;28;81363;-69
2022/12/29 04:56:34;;;;;;;2.63;1.50;;;23.00;42.30;;;;;;6099929;28;83500;-70
2022/12/29 04:59:34;;;;;;;2.40;1.60;;;23.00;42.30;;;;;;6070950;28;83615;-71
2022/12/29 05:02:35;;;;;;;2.92;1.60;;;23.10;42.30;;;;;;6090089;28;83509;-69
2022/12/29 05:05:35;;;;;;;1.80;1.58;;;23.10;42.20;;;;;;6101639;28;84035;-67
2022/12/29 05:08:36;;;;;;;2.70;1.70;;;23.00;42.10;;;;;;6101850;28;83152;-65
2022/12/29 05:11:37;;;;;;;2.60;2.03;;;23.10;42.10;;;;;;6096856;28;83104;-65
2022/12/29 05:14:37;;;;;;;2.30;1.60;;;23.10;42.40;;;;;;6094519;28;88101;-63
2022/12/29 05:17:38;;;;;;;2.47;1.52;;;23.10;42.70;;;;;;6083145;28;83608;-62
2022/12/29 05:20:40;;;;;;;2.33;1.50;;;23.10;42.80;;;;;;6082802;28;83063;-64
2022/12/29 05:23:41;;;;;;;3.50;1.95;;;23.00;43.60;;;;;;6107831;28;82639;-65
2022/12/29 05:26:42;;;;;;;3.95;1.65;;;23.00;43.90;;;;;;6109324;28;83285;-66
2022/12/29 05:30:02;;;;;;;2.85;1.75;;;23.00;43.60;;;;;;6098784;28;81522;-63
2022/12/29 05:33:02;;;;;;;6.85;2.15;;;23.00;43.60;;;;;;6102324;28;82800;-62
2022/12/29 05:36:03;;;;;;;3.63;1.95;;;23.00;43.50;;;;;;6100254;28;81090;-62
2022/12/29 05:39:04;;;;;;;2.67;2.00;;;23.10;43.50;;;;;;6102168;28;82237;-62
2022/12/29 05:42:04;;;;;;;4.63;2.50;;;23.00;43.60;;;;;;6102906;28;83288;-62
2022/12/29 05:45:22;;;;;;;3.05;2.00;;;23.00;43.60;;;;;;6097618;28;87958;-62
2022/12/29 05:48:41;;;;;;;2.40;1.70;;;23.00;43.60;;;;;;6102671;28;83726;-65
2022/12/29 05:52:14;;;;;;;5.93;2.42;;;23.00;43.20;;;;;;6118521;28;80831;-61
2022/12/29 05:55:14;;;;;;;4.10;2.05;;;23.00;43.30;;;;;;6102294;28;83279;-61
2022/12/29 05:58:17;;;;;;;2.88;1.67;;;23.00;43.00;;;;;;6103052;28;83486;-61
2022/12/29 06:01:17;;;;;;;2.97;1.60;;;23.10;42.60;;;;;;6103101;28;83679;-64
2022/12/29 06:04:19;;;;;;;2.30;2.10;;;23.10;42.60;;;;;;6102412;28;83729;-62
2022/12/29 06:07:19;;;;;;;2.22;1.80;;;23.10;42.90;;;;;;6084812;28;83851;-61
2022/12/29 06:10:22;;;;;;;2.55;1.75;;;23.10;43.60;;;;;;6072061;28;83371;-65
2022/12/29 06:13:28;;;;;;;2.10;1.40;;;23.00;43.60;;;;;;6069383;28;83423;-65
2022/12/29 06:16:30;;;;;;;4.35;1.50;;;23.10;44.40;;;;;;6078771;28;83711;-63
2022/12/29 06:19:33;;;;;;;1.92;1.45;;;23.00;44.90;;;;;;6058830;28;86023;-63
2022/12/29 06:22:34;;;;;;;1.38;1.20;;;23.00;45.80;;;;;;6059136;28;84024;-63
2022/12/29 06:25:35;;;;;;;5.13;1.33;;;22.90;45.80;;;;;;6079828;28;83241;-72
2022/12/29 06:28:36;;;;;;;3.33;1.35;;;22.90;46.30;;;;;;6076436;28;83147;-69
2022/12/29 06:31:37;;;;;;;1.23;1.10;;;22.90;46.80;;;;;;6077820;28;84110;-69
2022/12/29 06:34:38;;;;;;;3.40;1.40;;;22.90;46.90;;;;;;6075614;28;83831;-72
2022/12/29 06:37:39;;;;;;;1.83;1.52;;;22.90;47.50;;;;;;6063042;28;81032;-71
2022/12/29 06:40:41;;;;;;;1.42;1.17;;;22.90;47.50;;;;;;6065608;28;83177;-68
2022/12/29 06:44:04;;;;;;;1.20;1.10;;;22.90;47.60;;;;;;6057159;28;81060;-71
2022/12/29 06:47:23;;;;;;;1.73;1.10;;;22.90;47.70;;;;;;6062018;28;82009;-72
2022/12/29 06:50:24;;;;;;;2.20;1.20;;;22.90;48.20;;;;;;6051569;28;80719;-72
2022/12/29 06:53:24;;;;;;;1.52;1.20;;;22.90;47.90;;;;;;6061049;28;80430;-70
2022/12/29 06:56:25;;;;;;;1.10;1.00;;;22.90;48.10;;;;;;6062201;28;80963;-73
2022/12/29 06:59:26;;;;;;;1.75;1.30;;;22.90;48.30;;;;;;6063497;28;81257;-72
2022/12/29 07:02:27;;;;;;;1.20;0.95;;;22.90;48.40;;;;;;6065187;28;81838;-63
2022/12/29 07:05:27;;;;;;;1.60;1.20;;;22.90;48.40;;;;;;6075394;28;86563;-62
2022/12/29 07:08:28;;;;;;;3.83;1.30;;;22.90;48.70;;;;;;6079685;28;80527;-66
2022/12/29 07:11:28;;;;;;;1.25;1.10;;;22.90;48.60;;;;;;6078973;28;80942;-62
2022/12/29 07:14:29;;;;;;;1.23;1.10;;;22.90;48.50;;;;;;6067076;28;81058;-63
2022/12/29 07:17:29;;;;;;;1.55;1.20;;;22.90;48.70;;;;;;6049999;28;83925;-64
2022/12/29 07:20:30;;;;;;;3.42;1.50;;;22.90;49.00;;;;;;6044300;28;83560;-72
2022/12/29 07:23:30;;;;;;;2.60;1.35;;;22.90;48.90;;;;;;6066176;28;81236;-71
2022/12/29 07:26:31;;;;;;;1.40;1.30;;;22.90;48.90;;;;;;6069261;28;80420;-72
2022/12/29 07:29:31;;;;;;;1.92;1.35;;;22.90;48.90;;;;;;6064286;28;82308;-73
2022/12/29 07:32:32;;;;;;;1.88;1.10;;;22.90;49.10;;;;;;6065941;28;81327;-74
2022/12/29 07:35:32;;;;;;;1.30;1.20;;;22.90;49.30;;;;;;6068885;28;81517;-74
2022/12/29 07:38:33;;;;;;;1.13;1.02;;;22.90;49.40;;;;;;6078748;28;80962;-75
2022/12/29 07:41:34;;;;;;;1.25;1.13;;;23.00;49.50;;;;;;6080276;28;81176;-73
2022/12/29 07:44:36;;;;;;;3.95;1.27;;;23.00;49.60;;;;;;6083852;28;83418;-74
2022/12/29 07:47:57;;;;;;;1.58;1.40;;;23.00;49.60;;;;;;6071429;28;83144;-77
2022/12/29 07:50:57;;;;;;;4.45;1.60;;;23.00;49.70;;;;;;6079498;28;81261;-75
2022/12/29 07:54:00;;;;;;;1.83;1.50;;;23.00;49.80;;;;;;6078465;28;80580;-75
2022/12/29 07:57:00;;;;;;;2.55;1.50;;;23.00;49.50;;;;;;6076231;28;81028;-63
2022/12/29 08:00:01;;;;;;;1.58;1.40;;;23.00;49.80;;;;;;6081393;28;80857;-62
2022/12/29 08:03:01;;;;;;;3.67;1.42;;;23.00;49.40;;;;;;6067419;28;83218;-62
2022/12/29 08:06:02;;;;;;;6.05;2.38;;;23.00;49.60;;;;;;6101053;28;83092;-63
2022/12/29 08:09:02;;;;;;;3.15;1.33;;;23.00;49.80;;;;;;6080871;28;81414;-63
2022/12/29 08:12:03;;;;;;;4.00;1.38;;;23.00;49.80;;;;;;6080973;28;82929;-63
2022/12/29 08:15:03;;;;;;;2.00;1.20;;;23.10;49.80;;;;;;6080966;28;80599;-64
2022/12/29 08:18:04;;;;;;;1.70;1.20;;;23.10;49.90;;;;;;6081913;28;80459;-69
2022/12/29 08:21:05;;;;;;;3.20;1.42;;;23.10;50.00;;;;;;6052688;28;85123;-71
2022/12/29 08:24:06;;;;;;;2.85;1.70;;;23.10;50.00;;;;;;6062264;28;82108;-74
2022/12/29 08:27:06;;;;;;;3.85;1.40;;;23.10;49.80;;;;;;6053168;28;81392;-76
2022/12/29 08:30:07;;;;;;;3.38;1.60;;;23.10;50.00;;;;;;6066391;28;86522;-74
2022/12/29 08:33:07;;;;;;;2.88;1.67;;;23.10;50.20;;;;;;6066496;28;80864;-72
2022/12/29 08:36:08;;;;;;;5.50;1.80;;;23.10;50.00;;;;;;6066208;28;80914;-63
2022/12/29 08:39:08;;;;;;;3.53;1.40;;;23.10;50.00;;;;;;6064410;28;81193;-63
2022/12/29 08:42:09;;;;;;;7.40;1.73;;;23.10;50.00;;;;;;6073612;28;81104;-66
2022/12/29 08:45:09;;;;;;;7.75;1.63;;;23.10;50.30;;;;;;6075969;28;80643;-63
2022/12/29 08:48:10;;;;;;;1.63;1.33;;;23.10;50.40;;;;;;6073339;28;80435;-61
2022/12/29 08:51:10;;;;;;;3.38;1.95;;;23.20;50.70;;;;;;6082823;28;83700;-64
2022/12/29 08:54:11;;;;;;;3.00;1.50;;;23.20;50.10;;;;;;6066635;28;81640;-69
2022/12/29 08:57:11;;;;;;;3.28;2.17;;;23.20;50.30;;;;;;6082456;28;83853;-69
2022/12/29 09:00:22;;;;;;;3.63;1.88;;;23.10;50.10;;;;;;6080318;28;86467;-71
2022/12/29 09:03:25;;;;;;;3.22;1.40;;;23.10;50.40;;;;;;6087732;28;82342;-69
2022/12/29 09:06:25;;;;;;;2.45;1.90;;;23.10;50.30;;;;;;6083622;28;82687;-72
2022/12/29 09:09:26;;;;;;;2.65;1.52;;;23.10;50.50;;;;;;6077040;28;83800;-68
2022/12/29 09:12:26;;;;;;;2.38;1.77;;;23.10;50.40;;;;;;6067545;28;80482;-68
2022/12/29 09:15:27;;;;;;;1.55;1.33;;;23.20;50.90;;;;;;6078855;28;80307;-68
2022/12/29 09:18:27;;;;;;;1.88;1.48;;;23.20;51.00;;;;;;6080144;28;80732;-67
2022/12/29 09:21:28;;;;;;;1.98;1.25;;;23.20;51.60;;;;;;6078464;28;80377;-68
2022/12/29 09:24:28;;;;;;;3.63;1.48;;;23.30;51.70;;;;;;6050295;28;80441;-66
2022/12/29 09:27:30;;;;;;;2.40;1.42;;;23.50;51.50;;;;;;6069938;28;81837;-68
2022/12/29 09:30:30;;;;;;;3.55;1.70;;;23.60;51.50;;;;;;6085600;28;80247;-65
2022/12/29 09:33:33;;;;;;;5.65;1.75;;;23.70;50.90;;;;;;6079772;28;80904;-64
2022/12/29 09:36:33;;;;;;;3.15;1.80;;;23.80;50.40;;;;;;6071398;28;80771;-64
2022/12/29 09:39:34;;;;;;;3.72;1.77;;;23.90;50.20;;;;;;6063041;28;80975;-64
2022/12/29 09:42:34;;;;;;;2.33;1.60;;;24.00;50.20;;;;;;6062747;28;81404;-65
2022/12/29 09:45:35;;;;;;;3.20;1.50;;;24.10;49.90;;;;;;6077864;28;80174;-66
2022/12/29 09:48:35;;;;;;;1.70;1.60;;;24.10;49.90;;;;;;6078018;28;82484;-65
2022/12/29 09:51:36;;;;;;;2.60;1.70;;;24.20;49.80;;;;;;6079435;28;81581;-65
2022/12/29 09:54:36;;;;;;;3.10;1.95;;;24.20;49.60;;;;;;6068176;28;83670;-66
2022/12/29 09:57:37;;;;;;;3.25;1.50;;;24.30;49.50;;;;;;6062719;28;80832;-70
2022/12/29 10:00:37;;;;;;;3.78;1.50;;;24.30;49.40;;;;;;6062318;28;83689;-65
2022/12/29 10:03:38;;;;;;;2.28;1.58;;;24.40;49.30;;;;;;6068079;28;80521;-64
2022/12/29 10:06:38;;;;;;;2.08;1.70;;;24.50;49.20;;;;;;6060067;28;80696;-59
2022/12/29 10:09:39;;;;;;;2.25;1.77;;;24.50;48.90;;;;;;6066512;28;80966;-60
2022/12/29 10:12:39;;;;;;;2.15;1.45;;;24.50;49.70;;;;;;6069947;28;83901;-65
2022/12/29 10:15:40;;;;;;;3.30;1.30;;;24.50;49.10;;;;;;6063724;28;83616;-66
2022/12/29 10:18:41;;;;;;;1.92;1.45;;;24.50;49.20;;;;;;6064313;28;80425;-60
2022/12/29 10:21:41;;;;;;;1.98;1.60;;;24.60;49.50;;;;;;6079474;28;82022;-59
2022/12/29 10:24:42;;;;;;;14.60;1.90;;;24.60;49.70;;;;;;6065742;28;83210;-72
2022/12/29 10:27:42;;;;;;;1.60;1.50;;;24.70;49.50;;;;;;6075228;28;80867;-74
2022/12/29 10:30:43;;;;;;;1.40;1.30;;;24.70;50.00;;;;;;6079204;28;80479;-76
2022/12/29 10:33:43;;;;;;;2.65;1.48;;;24.80;49.90;;;;;;6086942;28;81466;-74
2022/12/29 10:36:46;;;;;;;2.42;1.83;;;24.90;49.60;;;;;;6072492;28;83055;-71
2022/12/29 10:39:47;;;;;;;1.95;1.48;;;24.90;49.90;;;;;;6074342;28;83437;-77
2022/12/29 10:42:47;;;;;;;2.97;1.50;;;24.90;49.70;;;;;;6063721;28;80559;-60
2022/12/29 10:45:48;;;;;;;2.30;1.30;;;25.00;49.90;;;;;;6065283;28;81165;-60
2022/12/29 10:48:48;;;;;;;3.03;1.50;;;25.00;49.80;;;;;;6092908;28;83162;-60
2022/12/29 10:51:51;;;;;;;2.55;1.13;;;25.10;49.80;;;;;;6078935;28;80889;-59
2022/12/29 10:54:52;;;;;;;2.22;1.33;;;25.10;49.80;;;;;;6059244;28;80657;-62
2022/12/29 10:57:52;;;;;;;3.00;2.13;;;25.20;49.70;;;;;;6081140;28;80442;-59
2022/12/29 11:00:53;;;;;;;1.52;1.30;;;25.20;49.80;;;;;;6068201;28;84346;-71
2022/12/29 11:03:54;;;;;;;1.42;1.30;;;25.20;50.00;;;;;;6083012;28;80450;-69
2022/12/29 11:06:54;;;;;;;2.80;1.50;;;25.30;49.90;;;;;;6077317;28;80488;-68
2022/12/29 11:09:55;;;;;;;2.42;1.58;;;25.30;49.50;;;;;;6080671;28;80885;-67
2022/12/29 11:12:55;;;;;;;1.55;1.45;;;25.30;49.00;;;;;;6083198;28;80796;-69
2022/12/29 11:15:56;;;;;;;2.30;1.40;;;25.20;48.80;;;;;;6078447;28;80957;-67
2022/12/29 11:18:56;;;;;;;3.25;1.23;;;25.20;48.50;;;;;;6081965;28;82939;-68
2022/12/29 11:21:57;;;;;;;2.90;1.52;;;25.10;48.10;;;;;;6086315;28;80516;-66
2022/12/29 11:24:58;;;;;;;5.28;1.63;;;25.10;48.10;;;;;;6061794;28;83496;-68
2022/12/29 11:27:58;;;;;;;5.07;1.50;;;25.00;47.90;;;;;;6071106;28;80485;-69
2022/12/29 11:30:59;;;;;;;3.75;1.25;;;24.90;47.70;;;;;;6070546;28;80815;-67
2022/12/29 11:33:59;;;;;;;2.35;1.42;;;24.90;47.60;;;;;;6061766;28;80421;-69
2022/12/29 11:37:00;;;;;;;4.20;1.80;;;24.80;47.80;;;;;;6061501;28;83404;-67
2022/12/29 11:40:01;;;;;;;3.30;2.10;;;24.90;48.00;;;;;;6085750;28;80636;-61
2022/12/29 11:43:04;;;;;;;3.92;2.10;;;24.90;45.30;;;;;;6082544;28;81002;-64
2022/12/29 11:46:04;;;;;;;2.60;1.92;;;24.90;44.20;;;;;;6089473;28;80780;-63
2022/12/29 11:49:05;;;;;;;5.55;2.42;;;24.90;43.90;;;;;;6071842;28;85963;-63
2022/12/29 11:52:05;;;;;;;5.43;2.55;;;24.90;43.70;;;;;;6063591;28;81565;-63
2022/12/29 11:55:06;;;;;;;3.25;2.42;;;25.00;43.90;;;;;;6097830;28;80599;-64
2022/12/29 11:58:06;;;;;;;5.15;2.60;;;25.10;44.10;;;;;;6092721;28;80873;-63
2022/12/29 12:01:07;;;;;;;6.57;2.65;;;25.10;44.10;;;;;;6053844;28;82479;-64
2022/12/29 12:04:08;;;;;;;6.60;2.75;;;25.20;43.80;;;;;;6070296;28;83256;-62
2022/12/29 12:07:08;;;;;;;6.60;2.53;;;25.30;43.30;;;;;;6057561;28;80960;-64
2022/12/29 12:10:09;;;;;;;6.20;2.60;;;25.40;43.20;;;;;;6075863;28;81098;-63
2022/12/29 12:13:09;;;;;;;6.05;3.03;;;25.50;43.30;;;;;;6080667;28;82301;-64
2022/12/29 12:16:10;;;;;;;5.95;2.90;;;25.50;43.30;;;;;;6067805;28;82408;-72
2022/12/29 12:19:10;;;;;;;3.45;2.53;;;25.50;42.90;;;;;;6077097;28;83624;-72
2022/12/29 12:22:11;;;;;;;6.05;2.95;;;25.40;42.00;;;;;;6076644;28;80491;-72
2022/12/29 12:25:11;;;;;;;4.85;3.00;;;25.30;41.90;;;;;;6069297;28;81251;-73
2022/12/29 12:28:12;;;;;;;5.20;2.78;;;25.20;41.00;;;;;;6085422;28;80714;-73
2022/12/29 12:31:13;;;;;;;6.22;3.53;;;25.10;41.80;;;;;;6085802;28;83898;-74
2022/12/29 12:34:14;;;;;;;5.07;3.65;;;25.10;41.80;;;;;;6068426;28;81320;-60
2022/12/29 12:37:14;;;;;;;5.38;3.55;;;25.00;42.30;;;;;;6064010;28;80225;-60
2022/12/29 12:40:15;;;;;;;6.50;3.15;;;24.90;42.90;;;;;;6073437;28;80765;-60
2022/12/29 12:43:15;;;;;;;7.55;3.25;;;24.80;43.80;;;;;;6076056;28;80706;-59
2022/12/29 12:46:16;;;;;;;7.63;3.13;;;24.70;44.50;;;;;;6071253;28;81483;-59
2022/12/29 12:49:16;;;;;;;7.15;3.50;;;24.60;44.70;;;;;;6076188;28;85788;-60
2022/12/29 12:52:17;;;;;;;6.05;2.78;;;24.60;45.20;;;;;;6076626;28;80296;-59
2022/12/29 12:55:17;;;;;;;7.28;3.08;;;24.50;45.80;;;;;;6072664;28;80785;-60
2022/12/29 12:58:18;;;;;;;5.00;2.90;;;24.40;46.20;;;;;;6076039;28;80902;-59
2022/12/29 13:01:18;;;;;;;3.38;2.45;;;24.40;46.40;;;;;;6071288;28;84115;-58
2022/12/29 13:04:19;;;;;;;5.45;2.50;;;24.30;46.10;;;;;;6075887;28;80216;-59
2022/12/29 13:07:20;;;;;;;5.65;2.28;;;24.30;46.40;;;;;;6073838;28;81335;-60
2022/12/29 13:10:21;;;;;;;5.50;2.45;;;24.20;46.70;;;;;;6076040;28;80333;-61
2022/12/29 13:13:21;;;;;;;3.00;2.45;;;24.10;47.00;;;;;;6070754;28;87134;-59
2022/12/29 13:16:22;;;;;;;3.88;1.92;;;24.10;46.60;;;;;;6089672;28;80873;-60
2022/12/29 13:19:24;;;;;;;3.22;2.10;;;24.10;46.50;;;;;;6075513;28;80557;-59
2022/12/29 13:22:24;;;;;;;3.47;2.50;;;24.00;46.90;;;;;;6073889;28;80402;-58
2022/12/29 13:25:25;;;;;;;4.40;2.55;;;24.00;47.10;;;;;;6075076;28;80471;-59
2022/12/29 13:28:25;;;;;;;3.92;2.22;;;24.00;47.20;;;;;;6071056;28;82155;-72
2022/12/29 13:31:26;;;;;;;4.25;2.05;;;23.90;47.20;;;;;;6067114;28;80777;-72
2022/12/29 13:34:26;;;;;;;2.85;1.80;;;23.90;47.50;;;;;;6080067;28;80527;-70
2022/12/29 13:37:27;;;;;;;4.28;2.17;;;23.90;47.90;;;;;;6061006;28;81839;-68
2022/12/29 13:40:27;;;;;;;2.83;1.80;;;23.90;48.30;;;;;;6064992;28;80920;-68
2022/12/29 13:43:28;;;;;;;2.78;2.00;;;23.90;48.50;;;;;;6069094;28;80510;-69
2022/12/29 13:46:28;;;;;;;3.75;1.73;;;23.90;48.70;;;;;;6058441;28;80974;-72
2022/12/29 13:49:29;;;;;;;2.92;2.10;;;23.90;48.90;;;;;;6060923;28;81706;-75
2022/12/29 13:52:29;;;;;;;2.90;1.90;;;23.90;49.80;;;;;;6070774;28;81290;-70
2022/12/29 13:55:30;;;;;;;2.22;1.90;;;23.90;49.20;;;;;;6071656;28;82080;-71
2022/12/29 13:58:30;;;;;;;4.68;1.73;;;23.90;49.00;;;;;;6063411;28;80269;-73
2022/12/29 14:01:31;;;;;;;4.22;2.08;;;23.90;49.40;;;;;;6062249;28;80591;-66
2022/12/29 14:04:34;;;;;;;4.60;1.75;;;23.90;49.70;;;;;;6066184;28;81297;-70
2022/12/29 14:07:35;;;;;;;3.15;1.63;;;23.80;49.70;;;;;;6061720;28;80469;-68
2022/12/29 14:10:35;;;;;;;3.05;2.03;;;23.80;49.60;;;;;;6062248;28;80672;-67
2022/12/29 14:13:36;;;;;;;4.32;2.00;;;23.80;49.60;;;;;;6070108;28;80758;-68
2022/12/29 14:16:37;;;;;;;3.25;2.00;;;23.80;49.50;;;;;;6069184;28;81938;-70
2022/12/29 14:19:38;;;;;;;3.33;2.03;;;23.80;49.60;;;;;;6070673;28;82680;-70
2022/12/29 14:22:38;;;;;;;3.30;2.08;;;23.80;49.50;;;;;;6067060;28;80546;-58
2022/12/29 14:25:39;;;;;;;3.05;1.98;;;23.80;49.70;;;;;;6073021;28;81146;-69
2022/12/29 14:28:39;;;;;;;2.22;1.85;;;23.70;49.70;;;;;;6072656;28;80528;-69
2022/12/29 14:31:40;;;;;;;2.13;1.75;;;23.70;49.70;;;;;;6069512;28;80851;-72
2022/12/29 14:34:40;;;;;;;4.30;1.88;;;23.70;49.70;;;;;;6067103;28;81027;-71
2022/12/29 14:37:41;;;;;;;4.65;2.25;;;23.70;49.90;;;;;;6058213;28;80730;-73
2022/12/29 14:40:42;;;;;;;2.95;2.00;;;23.70;49.90;;;;;;6060639;28;82252;-70
2022/12/29 14:43:42;;;;;;;2.30;1.65;;;23.70;49.90;;;;;;6092087;28;80902;-60
2022/12/29 14:46:43;;;;;;;2.58;1.50;;;23.70;50.20;;;;;;6058366;28;81536;-61
2022/12/29 14:49:43;;;;;;;3.08;2.08;;;23.70;50.20;;;;;;6058120;28;81013;-59
2022/12/29 14:52:44;;;;;;;2.60;2.17;;;23.70;50.20;;;;;;6056238;28;82051;-60
2022/12/29 14:55:46;;;;;;;2.38;2.08;;;23.70;50.30;;;;;;6061057;28;81016;-59
2022/12/29 14:58:47;;;;;;;3.78;2.17;;;23.70;50.30;;;;;;6075202;28;82224;-60
2022/12/29 15:01:48;;;;;;;4.65;2.42;;;23.70;50.40;;;;;;6078682;28;81107;-72
2022/12/29 15:04:49;;;;;;;2.97;2.40;;;23.70;50.40;;;;;;6078852;28;80330;-69
2022/12/29 15:07:49;;;;;;;3.42;2.60;;;23.70;50.50;;;;;;6056560;28;85441;-71
2022/12/29 15:10:50;;;;;;;9.00;2.75;;;23.60;50.90;;;;;;6060159;28;80724;-69
2022/12/29 15:13:51;;;;;;;5.18;2.65;;;23.60;51.00;;;;;;6062032;28;80850;-70
2022/12/29 15:16:51;;;;;;;3.58;2.42;;;23.60;51.30;;;;;;6056483;28;81554;-69
2022/12/29 15:19:52;;;;;;;4.55;2.72;;;23.70;51.70;;;;;;6072405;28;81078;-63
2022/12/29 15:22:52;;;;;;;4.15;2.20;;;23.70;51.50;;;;;;6066229;28;80025;-62
2022/12/29 15:25:53;;;;;;;3.28;2.45;;;23.80;51.90;;;;;;6068244;28;80869;-61
2022/12/29 15:28:54;;;;;;;3.92;2.40;;;23.80;51.70;;;;;;6072040;28;82103;-65
2022/12/29 15:31:55;;;;;;;2.80;2.30;;;23.80;51.70;;;;;;6058685;28;85538;-62
2022/12/29 15:34:55;;;;;;;3.35;2.45;;;23.80;51.30;;;;;;6057403;28;80488;-61
2022/12/29 15:37:56;;;;;;;4.20;2.80;;;23.90;51.50;;;;;;6053541;28;83600;-73
2022/12/29 15:40:57;;;;;;;6.05;3.10;;;23.80;51.30;;;;;;6064827;28;80279;-72
2022/12/29 15:43:57;;;;;;;6.05;3.67;;;23.80;50.90;;;;;;6066229;28;80599;-66
2022/12/29 15:46:58;;;;;;;7.28;3.58;;;23.80;50.80;;;;;;6056664;28;82100;-73
2022/12/29 15:49:58;;;;;;;8.10;4.00;;;23.80;51.20;;;;;;6063968;28;80749;-73
2022/12/29 15:52:59;;;;;;;7.57;3.90;;;23.80;52.20;;;;;;6061590;28;80861;-69
2022/12/29 15:55:59;;;;;;;6.32;3.92;;;23.80;52.30;;;;;;6048682;28;80828;-69
2022/12/29 15:59:00;;;;;;;9.15;3.95;;;23.90;52.20;;;;;;6051034;28;83064;-69
2022/12/29 16:02:00;;;;;;;6.07;3.45;;;23.90;52.90;;;;;;6055694;28;80591;-68
2022/12/29 16:05:01;;;;;;;12.45;3.88;;;23.80;52.90;;;;;;6051518;28;81973;-73
2022/12/29 16:08:01;;;;;;;7.13;3.78;;;23.90;53.10;;;;;;6049407;28;80893;-70
2022/12/29 16:11:02;;;;;;;9.43;3.92;;;23.90;53.10;;;;;;6048310;28;81116;-68
2022/12/29 16:14:02;;;;;;;6.47;3.42;;;23.90;53.20;;;;;;6047016;28;80477;-62
2022/12/29 16:17:06;;;;;;;6.47;3.45;;;23.90;53.00;;;;;;6053808;28;81313;-63